Newington, Connecticut
Current Conditions -  °F | °C
As of 1:53 AM on Wednesday 22 Oct 2014 (Local Time) from KHFD Reporting Station
Overcast Overcast  
Wind Chill: 12°   Ceiling: 2200
Heat Index: 12°   Visibility: 10mi
Dew Point: 10°   Wind: 9mph
Humidity: 86%   Direction: 360°N
Pressure: 29.94"   Gusts: NA
Location:  41.7°N, 72.73°W
Report Text: KHFD 220553Z AUTO 36008KT 310V030 10SM BKN022 OVC080 12/10 A2994 RMK AO2 SLP139 60000 T01220100 10139 20122 56006
Loading
Personal Weather Stations






























Interactive Weather Map
Tropical Storm Tracking
New forecast layout! Learn more

10-Day Weather Forecast

Advertisements
Track Severe Weather on mobile